createdAt,value
2022-12-01T00:03:33.807Z,98520.78
2022-12-01T00:08:36.335Z,98526.22
2022-12-01T00:13:38.927Z,98518.44
2022-12-01T00:18:41.602Z,98525.63
2022-12-01T00:23:48.634Z,98515.84
2022-12-01T00:28:56.703Z,98514.28
2022-12-01T00:33:59.104Z,98525.97
2022-12-01T00:39:01.541Z,98524.47
2022-12-01T00:44:04.058Z,98518.75
2022-12-01T00:49:06.441Z,98526.94
2022-12-01T00:54:08.860Z,98523.88
2022-12-01T00:59:12.009Z,98523.91
2022-12-01T01:04:14.603Z,98523.09
2022-12-01T01:09:17.656Z,98523.09
2022-12-01T01:14:20.679Z,98529.31
2022-12-01T01:19:23.853Z,98536.28
2022-12-01T01:24:26.356Z,98534.31
2022-12-01T01:29:28.746Z,98537.03
2022-12-01T01:34:31.206Z,98544.72
2022-12-01T01:39:33.550Z,98542.19
2022-12-01T01:44:58.248Z,98541.53
2022-12-01T01:50:08.434Z,98545.84
2022-12-01T01:55:11.157Z,98542.00
2022-12-01T02:00:17.369Z,98550.91
2022-12-01T02:05:29.474Z,98542.00
2022-12-01T02:10:59.313Z,98536.97
2022-12-01T02:16:16.800Z,98531.53
2022-12-01T02:21:27.016Z,98529.19
2022-12-01T02:26:55.909Z,98526.53
2022-12-01T02:32:07.663Z,98527.03
2022-12-01T02:37:41.849Z,98522.81
2022-12-01T02:43:09.711Z,98522.78
2022-12-01T02:48:37.367Z,98521.59
2022-12-01T02:53:39.951Z,98530.88
2022-12-01T02:58:44.037Z,98528.19
2022-12-01T03:04:01.875Z,98529.31
2022-12-01T03:09:13.081Z,98528.56
2022-12-01T03:14:42.717Z,98527.03
2022-12-01T03:19:50.370Z,98514.59
2022-12-01T03:24:55.838Z,98522.31
2022-12-01T03:30:01.047Z,98523.88
2022-12-01T03:35:19.065Z,98516.53
2022-12-01T03:40:27.259Z,98521.50
2022-12-01T03:45:56.091Z,98520.72
2022-12-01T03:51:22.950Z,98531.66
2022-12-01T03:56:39.536Z,98531.69
2022-12-01T04:01:42.451Z,98527.03
2022-12-01T04:06:50.304Z,98522.81
2022-12-01T04:12:11.560Z,98527.81
2022-12-01T04:17:14.181Z,98527.88
2022-12-01T04:22:16.791Z,98527.91
2022-12-01T04:27:20.339Z,98536.00
2022-12-01T04:32:22.747Z,98525.97
2022-12-01T04:37:25.150Z,98530.22
2022-12-01T04:42:27.505Z,98533.31
2022-12-01T04:47:29.868Z,98530.22
2022-12-01T04:52:35.180Z,98527.13
2022-12-01T04:57:39.581Z,98531.34
2022-12-01T05:02:44.923Z,98529.44
2022-12-01T05:07:47.301Z,98538.72
2022-12-01T05:12:49.907Z,98537.16
2022-12-01T05:17:52.387Z,98536.41
2022-12-01T05:23:07.135Z,98540.25
2022-12-01T05:28:10.532Z,98534.84
2022-12-01T05:33:13.267Z,98546.44
2022-12-01T05:38:15.921Z,98551.06
2022-12-01T05:43:21.605Z,98540.25
2022-12-01T05:48:26.417Z,98540.25
2022-12-01T05:53:28.906Z,98543.34
2022-12-01T05:58:31.343Z,98549.50
2022-12-01T06:03:33.842Z,98547.22
2022-12-01T06:08:36.493Z,98551.84
2022-12-01T06:13:39.055Z,98552.63
2022-12-01T06:18:41.413Z,98548.38
2022-12-01T06:23:44.192Z,98549.50
2022-12-01T06:28:46.793Z,98552.59
2022-12-01T06:33:49.154Z,98563.41
2022-12-01T06:38:51.595Z,98563.03
2022-12-01T06:43:54.830Z,98563.41
2022-12-01T06:48:57.506Z,98568.06
2022-12-01T06:54:05.233Z,98571.56
2022-12-01T06:59:08.121Z,98580.47
2022-12-01T07:04:10.795Z,98575.03
2022-12-01T07:09:13.484Z,98578.13
2022-12-01T07:14:24.263Z,98582.00
2022-12-01T07:19:27.004Z,98583.91
2022-12-01T07:24:30.490Z,98582.75
2022-12-01T07:29:32.954Z,98588.19
2022-12-01T07:34:35.320Z,98595.91
2022-12-01T07:39:37.921Z,98596.69
2022-12-01T07:44:40.291Z,98605.19
2022-12-01T07:49:42.838Z,98602.09
2022-12-01T07:54:45.425Z,98598.25
2022-12-01T07:59:48.281Z,98595.94
2022-12-01T08:04:50.948Z,98605.19
2022-12-01T08:09:53.298Z,98604.44
2022-12-01T08:14:55.651Z,98603.63
2022-12-01T08:19:58.232Z,98603.66
2022-12-01T08:25:00.652Z,98620.66
2022-12-01T08:30:03.462Z,98619.88
2022-12-01T08:35:06.567Z,98626.84
2022-12-01T08:40:09.471Z,98624.53
2022-12-01T08:45:12.402Z,98621.41
2022-12-01T08:50:15.577Z,98629.94
2022-12-01T08:55:18.214Z,98622.19
2022-12-01T09:00:20.670Z,98628.75
2022-12-01T09:05:23.063Z,98626.06
2022-12-01T09:10:25.686Z,98624.47
2022-12-01T09:15:28.019Z,98627.59
2022-12-01T09:20:30.349Z,98629.94
2022-12-01T09:25:34.371Z,98627.59
2022-12-01T09:30:37.390Z,98620.66
2022-12-01T09:35:39.911Z,98620.66
2022-12-01T09:40:43.611Z,98636.13
2022-12-01T09:45:52.845Z,98625.28
2022-12-01T09:50:55.745Z,98622.59
2022-12-01T09:56:05.936Z,98616.75
2022-12-01T10:01:17.989Z,98619.06
2022-12-01T10:06:29.513Z,98617.56
2022-12-01T10:11:40.291Z,98616.00
2022-12-01T10:17:05.675Z,98598.94
2022-12-01T10:22:26.124Z,98593.91
2022-12-01T10:27:52.305Z,98591.22
2022-12-01T10:32:56.281Z,98588.16
2022-12-01T10:38:01.741Z,98583.50
2022-12-01T10:43:04.425Z,98572.63
2022-12-01T10:48:15.208Z,98571.13
2022-12-01T10:53:36.703Z,98575.00
2022-12-01T10:58:55.416Z,98577.31
2022-12-01T11:04:19.480Z,98571.91
2022-12-01T11:09:28.550Z,98553.31
2022-12-01T11:14:49.541Z,98557.59
2022-12-01T11:19:52.559Z,98553.34
2022-12-01T11:24:55.204Z,98550.22
2022-12-01T11:30:05.379Z,98546.34
2022-12-01T11:35:11.004Z,98540.13
2022-12-01T11:40:52.839Z,98539.38
2022-12-01T11:45:58.275Z,98539.34
2022-12-01T11:51:08.206Z,98540.91
2022-12-01T11:56:24.129Z,98537.00
2022-12-01T12:01:35.200Z,98526.13
2022-12-01T12:06:56.695Z,98520.72
2022-12-01T12:12:08.386Z,98521.06
2022-12-01T12:17:31.783Z,98514.50
2022-12-01T12:23:05.304Z,98519.13
2022-12-01T12:28:22.701Z,98516.13
2022-12-01T12:33:59.459Z,98506.34
2022-12-01T12:39:16.462Z,98503.63
2022-12-01T12:44:37.357Z,98500.53
2022-12-01T12:49:47.623Z,98498.97
2022-12-01T12:54:55.063Z,98497.41
2022-12-01T13:00:19.560Z,98491.25
2022-12-01T13:05:46.163Z,98498.19
2022-12-01T13:11:07.990Z,98495.75
2022-12-01T13:16:18.406Z,98497.38
2022-12-01T13:21:22.555Z,98497.44
2022-12-01T13:26:25.277Z,98485.44
2022-12-01T13:31:27.821Z,98479.63
2022-12-01T13:36:48.929Z,98487.50
2022-12-01T13:42:01.209Z,98485.16
2022-12-01T13:47:12.017Z,98490.47
2022-12-01T13:52:23.720Z,98480.41
2022-12-01T13:57:29.526Z,98487.34
2022-12-01T14:02:34.129Z,98485.84
2022-12-01T14:07:38.568Z,98483.13
2022-12-01T14:12:45.681Z,98484.31
2022-12-01T14:17:58.288Z,98486.63
2022-12-01T14:23:16.475Z,98483.53
2022-12-01T14:28:57.916Z,98487.31
2022-12-01T14:34:13.206Z,98489.72
2022-12-01T14:39:33.847Z,98489.44
2022-12-01T14:44:41.847Z,98480.13
2022-12-01T14:50:07.496Z,98477.41
2022-12-01T14:55:22.352Z,98474.25
2022-12-01T15:00:25.554Z,98473.84
2022-12-01T15:05:31.030Z,98469.56
2022-12-01T15:10:37.741Z,98464.94
2022-12-01T15:15:52.149Z,98483.53
2022-12-01T15:21:09.265Z,98475.84
2022-12-01T15:26:21.078Z,98465.00
2022-12-01T15:31:23.707Z,98472.75
2022-12-01T15:36:26.448Z,98477.78
2022-12-01T15:41:30.214Z,98470.34
2022-12-01T15:46:37.372Z,98482.00
2022-12-01T15:51:39.839Z,98490.53
2022-12-01T15:56:42.584Z,98479.28
2022-12-01T16:01:45.854Z,98478.88
2022-12-01T16:06:59.628Z,98485.91
2022-12-01T16:12:17.744Z,98478.13
2022-12-01T16:17:20.601Z,98483.59
2022-12-01T16:22:23.256Z,98482.06
2022-12-01T16:27:26.572Z,98478.09
2022-12-01T16:32:40.580Z,98478.16
2022-12-01T16:37:43.288Z,98480.56
2022-12-01T16:42:46.803Z,98485.13
2022-12-01T16:47:49.567Z,98487.41
2022-12-01T16:52:51.918Z,98482.06
2022-12-01T16:57:55.459Z,98475.06
2022-12-01T17:02:58.570Z,98476.63
2022-12-01T17:08:01.197Z,98481.28
2022-12-01T17:13:03.638Z,98486.69
2022-12-01T17:18:06.347Z,98485.91
2022-12-01T17:23:08.780Z,98483.66
2022-12-01T17:28:11.187Z,98470.50
2022-12-01T17:33:13.768Z,98479.78
2022-12-01T17:38:17.036Z,98476.66
2022-12-01T17:43:20.930Z,98480.16
2022-12-01T17:48:23.530Z,98484.41
2022-12-01T17:53:27.187Z,98488.28
2022-12-01T17:58:30.827Z,98490.53
2022-12-01T18:03:33.271Z,98496.78
2022-12-01T18:08:36.740Z,98492.13
2022-12-01T18:13:50.080Z,98486.31
2022-12-01T18:18:53.497Z,98487.91
2022-12-01T18:23:58.559Z,98492.91
2022-12-01T18:29:04.930Z,98493.69
2022-12-01T18:34:08.111Z,98484.44
2022-12-01T18:39:12.050Z,98475.06
2022-12-01T18:44:15.460Z,98474.28
2022-12-01T18:49:18.769Z,98471.97
2022-12-01T18:54:21.274Z,98468.88
2022-12-01T18:59:23.633Z,98460.38
2022-12-01T19:04:26.125Z,98451.91
2022-12-01T19:09:28.559Z,98460.38
2022-12-01T19:14:32.716Z,98469.22
2022-12-01T19:19:37.580Z,98463.44
2022-12-01T19:24:40.300Z,98461.19
2022-12-01T19:29:42.827Z,98461.59
2022-12-01T19:34:46.011Z,98453.06
2022-12-01T19:39:48.417Z,98452.25
2022-12-01T19:44:51.127Z,98459.66
2022-12-01T19:49:53.607Z,98454.25
2022-12-01T19:54:56.045Z,98452.63
2022-12-01T19:59:58.428Z,98459.94
2022-12-01T20:05:01.101Z,98458.81
2022-12-01T20:10:03.894Z,98466.53
2022-12-01T20:15:08.707Z,98461.13
2022-12-01T20:20:12.349Z,98472.75
2022-12-01T20:25:15.187Z,98463.53
2022-12-01T20:30:17.636Z,98464.25
2022-12-01T20:35:20.099Z,98465.03
2022-12-01T20:40:22.593Z,98469.31
2022-12-01T20:45:25.000Z,98468.09
2022-12-01T20:50:27.600Z,98467.38
2022-12-01T20:55:30.062Z,98474.28
2022-12-01T21:00:32.754Z,98468.88
2022-12-01T21:05:38.118Z,98460.38
2022-12-01T21:10:44.936Z,98456.56
2022-12-01T21:15:58.592Z,98457.72
2022-12-01T21:21:34.724Z,98464.28
2022-12-01T21:26:41.096Z,98444.22
2022-12-01T21:31:44.476Z,98449.63
2022-12-01T21:36:49.316Z,98446.59
2022-12-01T21:41:54.978Z,98443.44
2022-12-01T21:46:59.251Z,98439.47
2022-12-01T21:52:03.580Z,98442.66
2022-12-01T21:57:42.502Z,98432.66
2022-12-01T22:03:08.713Z,98433.75
2022-12-01T22:08:23.711Z,98429.59
2022-12-01T22:13:47.049Z,98433.38
2022-12-01T22:18:58.011Z,98431.50
2022-12-01T22:24:08.967Z,98421.03
2022-12-01T22:29:42.038Z,98428.06
2022-12-01T22:34:55.249Z,98423.34
2022-12-01T22:39:57.867Z,98419.41
2022-12-01T22:45:22.363Z,98418.28
2022-12-01T22:50:31.020Z,98414.03
2022-12-01T22:55:34.033Z,98417.16
2022-12-01T23:00:36.417Z,98422.34
2022-12-01T23:05:38.869Z,98412.69
2022-12-01T23:10:42.270Z,98404.06
2022-12-01T23:15:50.744Z,98406.66
2022-12-01T23:20:58.822Z,98405.28
2022-12-01T23:26:07.092Z,98395.25
2022-12-01T23:31:10.149Z,98388.44
2022-12-01T23:36:16.339Z,98385.41
2022-12-01T23:41:35.920Z,98384.88
2022-12-01T23:46:38.558Z,98389.97
2022-12-01T23:51:49.811Z,98390.31
2022-12-01T23:57:16.390Z,98387.25
